sensor_id;sensor_type;location;lat;lon;timestamp;P1;durP1;ratioP1;P2;durP2;ratioP2
19205;SDS011;59358;52.134;5.596;2024-02-23T00:00:50;5.57;;;1.40;;
19205;SDS011;59358;52.134;5.596;2024-02-23T00:03:17;4.90;;;1.90;;
19205;SDS011;59358;52.134;5.596;2024-02-23T00:05:44;4.57;;;1.80;;
19205;SDS011;59358;52.134;5.596;2024-02-23T00:08:10;7.30;;;2.08;;
19205;SDS011;59358;52.134;5.596;2024-02-23T00:10:37;7.80;;;1.75;;
19205;SDS011;59358;52.134;5.596;2024-02-23T00:13:04;9.57;;;1.88;;
19205;SDS011;59358;52.134;5.596;2024-02-23T00:15:32;9.52;;;2.20;;
19205;SDS011;59358;52.134;5.596;2024-02-23T00:17:59;7.35;;;2.58;;
19205;SDS011;59358;52.134;5.596;2024-02-23T00:20:28;12.35;;;2.78;;
19205;SDS011;59358;52.134;5.596;2024-02-23T00:22:55;11.63;;;2.10;;
19205;SDS011;59358;52.134;5.596;2024-02-23T00:25:22;7.30;;;2.10;;
19205;SDS011;59358;52.134;5.596;2024-02-23T00:27:49;9.18;;;2.00;;
19205;SDS011;59358;52.134;5.596;2024-02-23T00:30:16;10.63;;;1.92;;
19205;SDS011;59358;52.134;5.596;2024-02-23T00:32:44;7.38;;;2.63;;
19205;SDS011;59358;52.134;5.596;2024-02-23T00:35:11;10.63;;;2.42;;
19205;SDS011;59358;52.134;5.596;2024-02-23T00:37:38;10.85;;;2.58;;
19205;SDS011;59358;52.134;5.596;2024-02-23T00:40:05;14.52;;;2.05;;
19205;SDS011;59358;52.134;5.596;2024-02-23T00:42:32;10.00;;;2.20;;
19205;SDS011;59358;52.134;5.596;2024-02-23T00:44:59;10.38;;;2.10;;
19205;SDS011;59358;52.134;5.596;2024-02-23T00:47:26;10.20;;;3.63;;
19205;SDS011;59358;52.134;5.596;2024-02-23T00:49:55;13.45;;;3.65;;
19205;SDS011;59358;52.134;5.596;2024-02-23T00:52:22;10.93;;;2.47;;
19205;SDS011;59358;52.134;5.596;2024-02-23T00:54:48;14.88;;;5.22;;
19205;SDS011;59358;52.134;5.596;2024-02-23T00:57:15;12.48;;;2.70;;
19205;SDS011;59358;52.134;5.596;2024-02-23T00:59:44;8.10;;;2.20;;
19205;SDS011;59358;52.134;5.596;2024-02-23T01:02:10;9.07;;;2.35;;
19205;SDS011;59358;52.134;5.596;2024-02-23T01:04:37;5.80;;;1.70;;
19205;SDS011;59358;52.134;5.596;2024-02-23T01:07:05;11.30;;;2.20;;
19205;SDS011;59358;52.134;5.596;2024-02-23T01:09:32;11.45;;;2.55;;
19205;SDS011;59358;52.134;5.596;2024-02-23T01:11:59;7.80;;;2.08;;
19205;SDS011;59358;52.134;5.596;2024-02-23T01:14:26;14.07;;;2.80;;
19205;SDS011;59358;52.134;5.596;2024-02-23T01:16:53;10.55;;;2.97;;
19205;SDS011;59358;52.134;5.596;2024-02-23T01:19:19;6.60;;;2.22;;
19205;SDS011;59358;52.134;5.596;2024-02-23T01:21:46;3.22;;;1.50;;
19205;SDS011;59358;52.134;5.596;2024-02-23T01:24:15;5.82;;;1.85;;
19205;SDS011;59358;52.134;5.596;2024-02-23T01:26:42;3.28;;;1.48;;
19205;SDS011;59358;52.134;5.596;2024-02-23T01:29:09;2.33;;;0.93;;
19205;SDS011;59358;52.134;5.596;2024-02-23T01:31:35;3.28;;;0.90;;
19205;SDS011;59358;52.134;5.596;2024-02-23T01:34:03;4.78;;;1.13;;
19205;SDS011;59358;52.134;5.596;2024-02-23T01:36:30;8.52;;;1.42;;
19205;SDS011;59358;52.134;5.596;2024-02-23T01:38:57;6.22;;;1.60;;
19205;SDS011;59358;52.134;5.596;2024-02-23T01:41:25;7.57;;;1.55;;
19205;SDS011;59358;52.134;5.596;2024-02-23T01:43:52;1.88;;;0.90;;
19205;SDS011;59358;52.134;5.596;2024-02-23T01:46:19;7.47;;;1.17;;
19205;SDS011;59358;52.134;5.596;2024-02-23T01:48:46;6.70;;;2.03;;
19205;SDS011;59358;52.134;5.596;2024-02-23T01:51:12;6.03;;;2.10;;
19205;SDS011;59358;52.134;5.596;2024-02-23T01:53:39;9.75;;;2.72;;
19205;SDS011;59358;52.134;5.596;2024-02-23T01:56:06;11.23;;;2.42;;
19205;SDS011;59358;52.134;5.596;2024-02-23T01:58:36;11.80;;;3.17;;
19205;SDS011;59358;52.134;5.596;2024-02-23T02:01:04;11.80;;;3.30;;
19205;SDS011;59358;52.134;5.596;2024-02-23T02:03:31;14.20;;;2.72;;
19205;SDS011;59358;52.134;5.596;2024-02-23T02:05:59;10.57;;;2.90;;
19205;SDS011;59358;52.134;5.596;2024-02-23T02:08:26;8.35;;;2.33;;
19205;SDS011;59358;52.134;5.596;2024-02-23T02:10:53;12.27;;;2.53;;
19205;SDS011;59358;52.134;5.596;2024-02-23T02:13:20;12.02;;;3.03;;
19205;SDS011;59358;52.134;5.596;2024-02-23T02:15:48;11.60;;;2.65;;
19205;SDS011;59358;52.134;5.596;2024-02-23T02:18:15;8.77;;;2.47;;
19205;SDS011;59358;52.134;5.596;2024-02-23T02:20:45;6.82;;;2.83;;
19205;SDS011;59358;52.134;5.596;2024-02-23T02:23:18;27.13;;;6.13;;
19205;SDS011;59358;52.134;5.596;2024-02-23T02:25:44;10.82;;;2.90;;
19205;SDS011;59358;52.134;5.596;2024-02-23T02:28:11;10.15;;;2.50;;
19205;SDS011;59358;52.134;5.596;2024-02-23T02:30:38;9.70;;;3.05;;
19205;SDS011;59358;52.134;5.596;2024-02-23T02:33:06;7.85;;;2.78;;
19205;SDS011;59358;52.134;5.596;2024-02-23T02:35:33;15.80;;;4.03;;
19205;SDS011;59358;52.134;5.596;2024-02-23T02:38:00;9.85;;;3.30;;
19205;SDS011;59358;52.134;5.596;2024-02-23T02:40:27;12.88;;;3.22;;
19205;SDS011;59358;52.134;5.596;2024-02-23T02:42:53;10.02;;;3.00;;
19205;SDS011;59358;52.134;5.596;2024-02-23T02:45:20;15.18;;;4.07;;
19205;SDS011;59358;52.134;5.596;2024-02-23T02:47:47;18.00;;;5.43;;
19205;SDS011;59358;52.134;5.596;2024-02-23T02:50:15;17.10;;;5.00;;
19205;SDS011;59358;52.134;5.596;2024-02-23T02:52:42;14.77;;;4.90;;
19205;SDS011;59358;52.134;5.596;2024-02-23T02:55:09;6.03;;;2.78;;
19205;SDS011;59358;52.134;5.596;2024-02-23T02:57:36;10.15;;;2.65;;
19205;SDS011;59358;52.134;5.596;2024-02-23T03:00:03;17.95;;;2.88;;
19205;SDS011;59358;52.134;5.596;2024-02-23T03:02:31;12.80;;;3.03;;
19205;SDS011;59358;52.134;5.596;2024-02-23T03:04:58;10.85;;;2.67;;
19205;SDS011;59358;52.134;5.596;2024-02-23T03:07:26;8.98;;;1.92;;
19205;SDS011;59358;52.134;5.596;2024-02-23T03:09:52;13.40;;;2.40;;
19205;SDS011;59358;52.134;5.596;2024-02-23T03:12:20;5.47;;;2.88;;
19205;SDS011;59358;52.134;5.596;2024-02-23T03:14:47;12.55;;;2.53;;
19205;SDS011;59358;52.134;5.596;2024-02-23T03:17:13;6.18;;;2.53;;
19205;SDS011;59358;52.134;5.596;2024-02-23T03:19:40;8.68;;;2.15;;
19205;SDS011;59358;52.134;5.596;2024-02-23T03:22:07;8.27;;;2.53;;
19205;SDS011;59358;52.134;5.596;2024-02-23T03:24:35;7.93;;;2.05;;
19205;SDS011;59358;52.134;5.596;2024-02-23T03:27:02;9.27;;;1.95;;
19205;SDS011;59358;52.134;5.596;2024-02-23T03:29:29;6.97;;;2.50;;
19205;SDS011;59358;52.134;5.596;2024-02-23T03:31:57;8.07;;;2.28;;
19205;SDS011;59358;52.134;5.596;2024-02-23T03:34:23;14.63;;;3.60;;
19205;SDS011;59358;52.134;5.596;2024-02-23T03:36:51;4.97;;;2.40;;
19205;SDS011;59358;52.134;5.596;2024-02-23T03:39:17;7.68;;;2.00;;
19205;SDS011;59358;52.134;5.596;2024-02-23T03:41:46;7.38;;;2.00;;
19205;SDS011;59358;52.134;5.596;2024-02-23T03:44:12;8.20;;;1.83;;
19205;SDS011;59358;52.134;5.596;2024-02-23T03:46:39;5.15;;;1.98;;
19205;SDS011;59358;52.134;5.596;2024-02-23T03:49:06;13.75;;;2.80;;
19205;SDS011;59358;52.134;5.596;2024-02-23T03:51:33;14.50;;;3.20;;
19205;SDS011;59358;52.134;5.596;2024-02-23T03:54:01;10.15;;;3.22;;
19205;SDS011;59358;52.134;5.596;2024-02-23T03:56:28;8.15;;;1.95;;
19205;SDS011;59358;52.134;5.596;2024-02-23T03:58:56;9.55;;;2.60;;
19205;SDS011;59358;52.134;5.596;2024-02-23T04:01:23;12.32;;;1.95;;
19205;SDS011;59358;52.134;5.596;2024-02-23T04:03:50;13.18;;;3.38;;
19205;SDS011;59358;52.134;5.596;2024-02-23T04:06:17;9.30;;;3.30;;
19205;SDS011;59358;52.134;5.596;2024-02-23T04:08:43;12.55;;;2.55;;
19205;SDS011;59358;52.134;5.596;2024-02-23T04:11:12;7.70;;;2.85;;
19205;SDS011;59358;52.134;5.596;2024-02-23T04:13:39;11.82;;;3.53;;
19205;SDS011;59358;52.134;5.596;2024-02-23T04:16:07;11.98;;;2.60;;
19205;SDS011;59358;52.134;5.596;2024-02-23T04:18:34;8.82;;;2.50;;
19205;SDS011;59358;52.134;5.596;2024-02-23T04:21:00;8.43;;;3.35;;
19205;SDS011;59358;52.134;5.596;2024-02-23T04:23:27;11.43;;;2.65;;
19205;SDS011;59358;52.134;5.596;2024-02-23T04:25:54;13.60;;;3.65;;
19205;SDS011;59358;52.134;5.596;2024-02-23T04:28:21;12.27;;;2.80;;
19205;SDS011;59358;52.134;5.596;2024-02-23T04:30:48;26.48;;;5.07;;
19205;SDS011;59358;52.134;5.596;2024-02-23T04:33:16;12.05;;;4.05;;
19205;SDS011;59358;52.134;5.596;2024-02-23T04:35:42;14.52;;;3.13;;
19205;SDS011;59358;52.134;5.596;2024-02-23T04:38:09;12.05;;;3.67;;
19205;SDS011;59358;52.134;5.596;2024-02-23T04:40:36;14.57;;;3.38;;
19205;SDS011;59358;52.134;5.596;2024-02-23T04:43:03;9.88;;;2.75;;
19205;SDS011;59358;52.134;5.596;2024-02-23T04:45:30;9.57;;;2.75;;
19205;SDS011;59358;52.134;5.596;2024-02-23T04:47:57;12.75;;;4.30;;
19205;SDS011;59358;52.134;5.596;2024-02-23T04:50:25;10.60;;;3.10;;
19205;SDS011;59358;52.134;5.596;2024-02-23T04:52:52;8.00;;;2.92;;
19205;SDS011;59358;52.134;5.596;2024-02-23T04:55:18;14.13;;;3.00;;
19205;SDS011;59358;52.134;5.596;2024-02-23T04:57:45;10.02;;;2.95;;
19205;SDS011;59358;52.134;5.596;2024-02-23T05:00:12;8.50;;;2.83;;
19205;SDS011;59358;52.134;5.596;2024-02-23T05:02:39;7.05;;;3.20;;
19205;SDS011;59358;52.134;5.596;2024-02-23T05:05:06;12.82;;;3.88;;
19205;SDS011;59358;52.134;5.596;2024-02-23T05:07:34;11.75;;;3.63;;
19205;SDS011;59358;52.134;5.596;2024-02-23T05:10:01;7.30;;;3.20;;
19205;SDS011;59358;52.134;5.596;2024-02-23T05:12:29;8.52;;;3.33;;
19205;SDS011;59358;52.134;5.596;2024-02-23T05:14:55;10.40;;;4.50;;
19205;SDS011;59358;52.134;5.596;2024-02-23T05:17:22;10.52;;;3.63;;
19205;SDS011;59358;52.134;5.596;2024-02-23T05:19:49;10.13;;;3.67;;
19205;SDS011;59358;52.134;5.596;2024-02-23T05:22:16;10.45;;;3.83;;
19205;SDS011;59358;52.134;5.596;2024-02-23T05:24:45;8.82;;;3.40;;
19205;SDS011;59358;52.134;5.596;2024-02-23T05:27:12;8.45;;;2.95;;
19205;SDS011;59358;52.134;5.596;2024-02-23T05:29:39;7.82;;;3.22;;
19205;SDS011;59358;52.134;5.596;2024-02-23T05:32:06;9.73;;;3.65;;
19205;SDS011;59358;52.134;5.596;2024-02-23T05:34:33;14.70;;;3.58;;
19205;SDS011;59358;52.134;5.596;2024-02-23T05:37:00;8.25;;;3.55;;
19205;SDS011;59358;52.134;5.596;2024-02-23T05:39:27;11.52;;;3.90;;
19205;SDS011;59358;52.134;5.596;2024-02-23T05:41:56;10.07;;;3.42;;
19205;SDS011;59358;52.134;5.596;2024-02-23T05:44:24;9.95;;;3.45;;
19205;SDS011;59358;52.134;5.596;2024-02-23T05:46:51;8.85;;;3.40;;
19205;SDS011;59358;52.134;5.596;2024-02-23T05:49:18;10.98;;;4.28;;
19205;SDS011;59358;52.134;5.596;2024-02-23T05:51:45;13.38;;;4.28;;
19205;SDS011;59358;52.134;5.596;2024-02-23T05:54:12;6.95;;;3.05;;
19205;SDS011;59358;52.134;5.596;2024-02-23T05:56:39;8.50;;;3.33;;
19205;SDS011;59358;52.134;5.596;2024-02-23T05:59:07;9.55;;;3.03;;
19205;SDS011;59358;52.134;5.596;2024-02-23T06:01:33;12.55;;;3.05;;
19205;SDS011;59358;52.134;5.596;2024-02-23T06:04:00;17.08;;;4.10;;
19205;SDS011;59358;52.134;5.596;2024-02-23T06:06:27;12.07;;;3.20;;
19205;SDS011;59358;52.134;5.596;2024-02-23T06:08:54;8.60;;;3.10;;
19205;SDS011;59358;52.134;5.596;2024-02-23T06:11:21;16.00;;;3.25;;
19205;SDS011;59358;52.134;5.596;2024-02-23T06:13:48;9.90;;;2.67;;
19205;SDS011;59358;52.134;5.596;2024-02-23T06:16:16;8.50;;;2.88;;
19205;SDS011;59358;52.134;5.596;2024-02-23T06:18:43;7.50;;;2.90;;
19205;SDS011;59358;52.134;5.596;2024-02-23T06:21:13;8.27;;;3.45;;
19205;SDS011;59358;52.134;5.596;2024-02-23T06:23:40;7.72;;;2.72;;
19205;SDS011;59358;52.134;5.596;2024-02-23T06:26:07;9.60;;;3.03;;
19205;SDS011;59358;52.134;5.596;2024-02-23T06:28:33;13.43;;;2.25;;
19205;SDS011;59358;52.134;5.596;2024-02-23T06:31:02;3.17;;;1.58;;
19205;SDS011;59358;52.134;5.596;2024-02-23T06:33:31;9.05;;;2.53;;
19205;SDS011;59358;52.134;5.596;2024-02-23T06:35:58;7.45;;;3.13;;
19205;SDS011;59358;52.134;5.596;2024-02-23T06:38:24;5.88;;;2.30;;
19205;SDS011;59358;52.134;5.596;2024-02-23T06:40:51;6.90;;;2.42;;
19205;SDS011;59358;52.134;5.596;2024-02-23T06:43:18;3.63;;;1.77;;
19205;SDS011;59358;52.134;5.596;2024-02-23T06:45:45;8.63;;;2.30;;
19205;SDS011;59358;52.134;5.596;2024-02-23T06:48:12;8.90;;;3.33;;
19205;SDS011;59358;52.134;5.596;2024-02-23T06:50:40;8.27;;;2.70;;
19205;SDS011;59358;52.134;5.596;2024-02-23T06:53:07;5.45;;;1.98;;
19205;SDS011;59358;52.134;5.596;2024-02-23T06:55:34;5.90;;;2.25;;
19205;SDS011;59358;52.134;5.596;2024-02-23T06:58:01;7.30;;;2.10;;
19205;SDS011;59358;52.134;5.596;2024-02-23T07:00:29;8.07;;;2.92;;
19205;SDS011;59358;52.134;5.596;2024-02-23T07:02:57;8.23;;;2.47;;
19205;SDS011;59358;52.134;5.596;2024-02-23T07:05:26;7.05;;;2.75;;
19205;SDS011;59358;52.134;5.596;2024-02-23T07:07:54;8.77;;;2.80;;
19205;SDS011;59358;52.134;5.596;2024-02-23T07:10:21;11.20;;;2.60;;
19205;SDS011;59358;52.134;5.596;2024-02-23T07:12:50;7.30;;;2.45;;
19205;SDS011;59358;52.134;5.596;2024-02-23T07:15:18;7.50;;;2.67;;
19205;SDS011;59358;52.134;5.596;2024-02-23T07:17:45;7.80;;;2.83;;
19205;SDS011;59358;52.134;5.596;2024-02-23T07:20:12;9.88;;;2.92;;
19205;SDS011;59358;52.134;5.596;2024-02-23T07:22:39;8.18;;;2.85;;
19205;SDS011;59358;52.134;5.596;2024-02-23T07:25:10;11.57;;;2.72;;
19205;SDS011;59358;52.134;5.596;2024-02-23T07:27:37;5.50;;;2.30;;
19205;SDS011;59358;52.134;5.596;2024-02-23T07:30:04;13.02;;;2.97;;
19205;SDS011;59358;52.134;5.596;2024-02-23T07:32:32;8.55;;;3.10;;
19205;SDS011;59358;52.134;5.596;2024-02-23T07:34:59;6.50;;;2.30;;
19205;SDS011;59358;52.134;5.596;2024-02-23T07:37:26;7.90;;;2.58;;
19205;SDS011;59358;52.134;5.596;2024-02-23T07:39:53;8.48;;;2.50;;
19205;SDS011;59358;52.134;5.596;2024-02-23T07:42:21;6.88;;;2.85;;
19205;SDS011;59358;52.134;5.596;2024-02-23T07:44:48;5.82;;;1.90;;
19205;SDS011;59358;52.134;5.596;2024-02-23T07:47:14;6.90;;;2.58;;
19205;SDS011;59358;52.134;5.596;2024-02-23T07:49:42;5.22;;;2.10;;
19205;SDS011;59358;52.134;5.596;2024-02-23T07:52:09;6.72;;;1.90;;
19205;SDS011;59358;52.134;5.596;2024-02-23T07:54:35;6.45;;;1.85;;
19205;SDS011;59358;52.134;5.596;2024-02-23T07:57:02;9.32;;;1.98;;
19205;SDS011;59358;52.134;5.596;2024-02-23T07:59:31;4.22;;;1.60;;
19205;SDS011;59358;52.134;5.596;2024-02-23T08:01:58;6.20;;;2.33;;
19205;SDS011;59358;52.134;5.596;2024-02-23T08:04:24;8.48;;;1.58;;
19205;SDS011;59358;52.134;5.596;2024-02-23T08:06:51;7.20;;;1.83;;
19205;SDS011;59358;52.134;5.596;2024-02-23T08:09:18;5.57;;;2.50;;
19205;SDS011;59358;52.134;5.596;2024-02-23T08:11:47;6.75;;;1.65;;
19205;SDS011;59358;52.134;5.596;2024-02-23T08:14:14;6.07;;;2.10;;
19205;SDS011;59358;52.134;5.596;2024-02-23T08:16:42;9.38;;;2.05;;
19205;SDS011;59358;52.134;5.596;2024-02-23T08:19:09;5.88;;;1.50;;
19205;SDS011;59358;52.134;5.596;2024-02-23T08:21:36;5.40;;;2.05;;
19205;SDS011;59358;52.134;5.596;2024-02-23T08:24:04;6.80;;;1.45;;
19205;SDS011;59358;52.134;5.596;2024-02-23T08:26:32;12.90;;;1.80;;
19205;SDS011;59358;52.134;5.596;2024-02-23T08:28:59;8.43;;;2.03;;
19205;SDS011;59358;52.134;5.596;2024-02-23T08:31:26;4.53;;;1.58;;
19205;SDS011;59358;52.134;5.596;2024-02-23T08:33:55;5.85;;;1.48;;
19205;SDS011;59358;52.134;5.596;2024-02-23T08:36:21;5.72;;;1.70;;
19205;SDS011;59358;52.134;5.596;2024-02-23T08:38:48;11.68;;;2.47;;
19205;SDS011;59358;52.134;5.596;2024-02-23T08:41:15;4.90;;;1.67;;
19205;SDS011;59358;52.134;5.596;2024-02-23T08:43:42;6.10;;;1.70;;
19205;SDS011;59358;52.134;5.596;2024-02-23T08:46:09;8.23;;;2.10;;
19205;SDS011;59358;52.134;5.596;2024-02-23T08:48:36;8.63;;;2.20;;
19205;SDS011;59358;52.134;5.596;2024-02-23T08:51:05;9.30;;;1.60;;
19205;SDS011;59358;52.134;5.596;2024-02-23T08:53:32;6.47;;;1.42;;
19205;SDS011;59358;52.134;5.596;2024-02-23T08:55:58;8.82;;;1.90;;
19205;SDS011;59358;52.134;5.596;2024-02-23T08:58:25;13.73;;;2.55;;
19205;SDS011;59358;52.134;5.596;2024-02-23T09:00:52;9.88;;;2.05;;
19205;SDS011;59358;52.134;5.596;2024-02-23T09:03:19;8.13;;;1.65;;
19205;SDS011;59358;52.134;5.596;2024-02-23T09:05:46;9.88;;;2.53;;
19205;SDS011;59358;52.134;5.596;2024-02-23T09:08:14;8.68;;;2.03;;
19205;SDS011;59358;52.134;5.596;2024-02-23T09:10:41;10.32;;;1.63;;
19205;SDS011;59358;52.134;5.596;2024-02-23T09:13:08;10.00;;;2.97;;
19205;SDS011;59358;52.134;5.596;2024-02-23T09:15:36;9.68;;;1.98;;
19205;SDS011;59358;52.134;5.596;2024-02-23T09:18:07;6.78;;;1.70;;
19205;SDS011;59358;52.134;5.596;2024-02-23T09:20:33;6.00;;;1.30;;
19205;SDS011;59358;52.134;5.596;2024-02-23T09:23:00;12.93;;;2.17;;
19205;SDS011;59358;52.134;5.596;2024-02-23T09:25:29;6.88;;;2.10;;
19205;SDS011;59358;52.134;5.596;2024-02-23T09:27:56;5.20;;;1.75;;
19205;SDS011;59358;52.134;5.596;2024-02-23T09:30:23;8.68;;;2.13;;
19205;SDS011;59358;52.134;5.596;2024-02-23T09:32:50;9.07;;;1.70;;
19205;SDS011;59358;52.134;5.596;2024-02-23T09:35:17;7.93;;;1.70;;
19205;SDS011;59358;52.134;5.596;2024-02-23T09:37:45;9.32;;;1.80;;
19205;SDS011;59358;52.134;5.596;2024-02-23T09:40:11;6.78;;;2.75;;
19205;SDS011;59358;52.134;5.596;2024-02-23T09:42:41;7.68;;;1.90;;
19205;SDS011;59358;52.134;5.596;2024-02-23T09:45:08;11.35;;;2.15;;
19205;SDS011;59358;52.134;5.596;2024-02-23T09:47:38;8.20;;;1.80;;
19205;SDS011;59358;52.134;5.596;2024-02-23T09:50:06;4.20;;;1.63;;
19205;SDS011;59358;52.134;5.596;2024-02-23T09:52:35;10.00;;;1.77;;
19205;SDS011;59358;52.134;5.596;2024-02-23T09:55:02;8.35;;;1.73;;
19205;SDS011;59358;52.134;5.596;2024-02-23T09:57:29;4.50;;;1.33;;
19205;SDS011;59358;52.134;5.596;2024-02-23T09:59:57;8.85;;;1.73;;
19205;SDS011;59358;52.134;5.596;2024-02-23T10:02:24;5.30;;;1.33;;
19205;SDS011;59358;52.134;5.596;2024-02-23T10:04:51;8.88;;;1.92;;
19205;SDS011;59358;52.134;5.596;2024-02-23T10:07:22;7.90;;;2.20;;
19205;SDS011;59358;52.134;5.596;2024-02-23T10:09:51;6.55;;;1.58;;
19205;SDS011;59358;52.134;5.596;2024-02-23T10:12:18;2.90;;;1.30;;
19205;SDS011;59358;52.134;5.596;2024-02-23T10:14:45;7.93;;;1.88;;
19205;SDS011;59358;52.134;5.596;2024-02-23T10:17:13;6.53;;;1.70;;
19205;SDS011;59358;52.134;5.596;2024-02-23T10:19:40;8.10;;;1.90;;
19205;SDS011;59358;52.134;5.596;2024-02-23T10:22:07;6.88;;;1.83;;
19205;SDS011;59358;52.134;5.596;2024-02-23T10:24:36;8.25;;;1.92;;
19205;SDS011;59358;52.134;5.596;2024-02-23T10:27:03;7.55;;;2.05;;
19205;SDS011;59358;52.134;5.596;2024-02-23T10:29:30;10.23;;;1.77;;
19205;SDS011;59358;52.134;5.596;2024-02-23T10:31:57;7.30;;;1.58;;
19205;SDS011;59358;52.134;5.596;2024-02-23T10:34:25;6.68;;;1.65;;
19205;SDS011;59358;52.134;5.596;2024-02-23T10:36:55;5.88;;;2.55;;
19205;SDS011;59358;52.134;5.596;2024-02-23T10:39:23;6.93;;;1.83;;
19205;SDS011;59358;52.134;5.596;2024-02-23T10:41:56;6.15;;;1.90;;
19205;SDS011;59358;52.134;5.596;2024-02-23T10:44:26;7.32;;;2.90;;
19205;SDS011;59358;52.134;5.596;2024-02-23T10:46:54;6.32;;;2.13;;
19205;SDS011;59358;52.134;5.596;2024-02-23T10:49:23;11.95;;;2.08;;
19205;SDS011;59358;52.134;5.596;2024-02-23T10:51:53;8.25;;;2.17;;
19205;SDS011;59358;52.134;5.596;2024-02-23T10:54:21;5.18;;;2.58;;
19205;SDS011;59358;52.134;5.596;2024-02-23T10:56:49;2.20;;;1.45;;
19205;SDS011;59358;52.134;5.596;2024-02-23T10:59:16;9.45;;;2.53;;
19205;SDS011;59358;52.134;5.596;2024-02-23T11:01:44;5.53;;;1.95;;
19205;SDS011;59358;52.134;5.596;2024-02-23T11:04:14;4.82;;;1.98;;
19205;SDS011;59358;52.134;5.596;2024-02-23T11:06:41;7.82;;;2.15;;
19205;SDS011;59358;52.134;5.596;2024-02-23T11:09:11;7.90;;;2.22;;
19205;SDS011;59358;52.134;5.596;2024-02-23T11:11:38;8.07;;;2.15;;
19205;SDS011;59358;52.134;5.596;2024-02-23T11:14:07;4.30;;;1.88;;
19205;SDS011;59358;52.134;5.596;2024-02-23T11:16:38;5.90;;;2.25;;
19205;SDS011;59358;52.134;5.596;2024-02-23T11:19:06;4.53;;;1.95;;
19205;SDS011;59358;52.134;5.596;2024-02-23T11:21:34;4.95;;;1.83;;
19205;SDS011;59358;52.134;5.596;2024-02-23T11:24:03;6.97;;;2.00;;
19205;SDS011;59358;52.134;5.596;2024-02-23T11:26:32;5.03;;;1.52;;
19205;SDS011;59358;52.134;5.596;2024-02-23T11:29:09;4.93;;;2.10;;
19205;SDS011;59358;52.134;5.596;2024-02-23T11:31:37;6.22;;;3.00;;
19205;SDS011;59358;52.134;5.596;2024-02-23T11:34:10;7.32;;;1.92;;
19205;SDS011;59358;52.134;5.596;2024-02-23T11:36:39;5.28;;;2.13;;
19205;SDS011;59358;52.134;5.596;2024-02-23T11:39:06;5.63;;;1.67;;
19205;SDS011;59358;52.134;5.596;2024-02-23T11:41:38;6.47;;;1.90;;
19205;SDS011;59358;52.134;5.596;2024-02-23T11:44:06;5.72;;;2.30;;
19205;SDS011;59358;52.134;5.596;2024-02-23T11:46:33;5.65;;;2.47;;
19205;SDS011;59358;52.134;5.596;2024-02-23T11:48:59;5.43;;;2.30;;
19205;SDS011;59358;52.134;5.596;2024-02-23T11:51:27;9.45;;;2.10;;
19205;SDS011;59358;52.134;5.596;2024-02-23T11:53:55;7.47;;;1.63;;
19205;SDS011;59358;52.134;5.596;2024-02-23T11:56:25;4.88;;;1.70;;
19205;SDS011;59358;52.134;5.596;2024-02-23T11:58:54;6.60;;;2.00;;
19205;SDS011;59358;52.134;5.596;2024-02-23T12:01:21;6.88;;;1.98;;
19205;SDS011;59358;52.134;5.596;2024-02-23T12:03:48;3.88;;;1.60;;
19205;SDS011;59358;52.134;5.596;2024-02-23T12:06:15;3.75;;;1.80;;
19205;SDS011;59358;52.134;5.596;2024-02-23T12:08:43;5.63;;;2.00;;
19205;SDS011;59358;52.134;5.596;2024-02-23T12:11:11;6.97;;;1.98;;
19205;SDS011;59358;52.134;5.596;2024-02-23T12:13:39;7.45;;;1.85;;
19205;SDS011;59358;52.134;5.596;2024-02-23T12:16:08;3.47;;;1.83;;
19205;SDS011;59358;52.134;5.596;2024-02-23T12:18:35;5.88;;;1.92;;
19205;SDS011;59358;52.134;5.596;2024-02-23T12:21:04;3.63;;;1.77;;
19205;SDS011;59358;52.134;5.596;2024-02-23T12:23:37;4.88;;;1.88;;
19205;SDS011;59358;52.134;5.596;2024-02-23T12:26:08;6.05;;;2.00;;
19205;SDS011;59358;52.134;5.596;2024-02-23T12:28:36;4.95;;;1.77;;
19205;SDS011;59358;52.134;5.596;2024-02-23T12:31:03;6.68;;;1.80;;
19205;SDS011;59358;52.134;5.596;2024-02-23T12:33:32;5.10;;;2.00;;
19205;SDS011;59358;52.134;5.596;2024-02-23T12:36:00;5.97;;;2.47;;
19205;SDS011;59358;52.134;5.596;2024-02-23T12:38:28;5.90;;;2.30;;
19205;SDS011;59358;52.134;5.596;2024-02-23T12:40:55;3.20;;;1.90;;
19205;SDS011;59358;52.134;5.596;2024-02-23T12:43:23;4.63;;;2.10;;
19205;SDS011;59358;52.134;5.596;2024-02-23T12:45:50;6.78;;;1.92;;
19205;SDS011;59358;52.134;5.596;2024-02-23T12:48:17;6.63;;;3.08;;
19205;SDS011;59358;52.134;5.596;2024-02-23T12:50:46;5.15;;;2.28;;
19205;SDS011;59358;52.134;5.596;2024-02-23T12:53:29;5.68;;;2.03;;
19205;SDS011;59358;52.134;5.596;2024-02-23T12:55:58;8.65;;;2.20;;
19205;SDS011;59358;52.134;5.596;2024-02-23T12:58:26;5.13;;;1.67;;
19205;SDS011;59358;52.134;5.596;2024-02-23T13:00:56;7.90;;;2.50;;
19205;SDS011;59358;52.134;5.596;2024-02-23T13:03:32;7.28;;;1.75;;
19205;SDS011;59358;52.134;5.596;2024-02-23T13:06:00;6.38;;;2.50;;
19205;SDS011;59358;52.134;5.596;2024-02-23T13:08:28;6.18;;;1.63;;
19205;SDS011;59358;52.134;5.596;2024-02-23T13:10:56;5.05;;;1.80;;
19205;SDS011;59358;52.134;5.596;2024-02-23T13:13:23;3.72;;;1.60;;
19205;SDS011;59358;52.134;5.596;2024-02-23T13:15:51;2.97;;;1.60;;
19205;SDS011;59358;52.134;5.596;2024-02-23T13:18:19;5.55;;;2.13;;
19205;SDS011;59358;52.134;5.596;2024-02-23T13:20:46;3.95;;;1.27;;
19205;SDS011;59358;52.134;5.596;2024-02-23T13:23:14;3.80;;;1.85;;
19205;SDS011;59358;52.134;5.596;2024-02-23T13:25:41;4.25;;;1.85;;
19205;SDS011;59358;52.134;5.596;2024-02-23T13:28:09;6.55;;;1.77;;
19205;SDS011;59358;52.134;5.596;2024-02-23T13:30:36;6.68;;;2.25;;
19205;SDS011;59358;52.134;5.596;2024-02-23T13:33:03;4.20;;;1.50;;
19205;SDS011;59358;52.134;5.596;2024-02-23T13:35:31;5.80;;;1.85;;
19205;SDS011;59358;52.134;5.596;2024-02-23T13:37:58;5.82;;;2.15;;
19205;SDS011;59358;52.134;5.596;2024-02-23T13:40:29;4.00;;;1.77;;
19205;SDS011;59358;52.134;5.596;2024-02-23T13:42:56;3.70;;;1.70;;
19205;SDS011;59358;52.134;5.596;2024-02-23T13:45:23;4.55;;;1.75;;
19205;SDS011;59358;52.134;5.596;2024-02-23T13:47:57;6.45;;;1.95;;
19205;SDS011;59358;52.134;5.596;2024-02-23T13:50:24;6.78;;;1.95;;
19205;SDS011;59358;52.134;5.596;2024-02-23T13:52:51;6.82;;;2.00;;
19205;SDS011;59358;52.134;5.596;2024-02-23T13:55:18;3.47;;;1.90;;
19205;SDS011;59358;52.134;5.596;2024-02-23T13:57:47;6.80;;;2.30;;
19205;SDS011;59358;52.134;5.596;2024-02-23T14:00:15;7.38;;;2.40;;
19205;SDS011;59358;52.134;5.596;2024-02-23T14:02:43;3.67;;;1.65;;
19205;SDS011;59358;52.134;5.596;2024-02-23T14:05:10;9.65;;;3.15;;
19205;SDS011;59358;52.134;5.596;2024-02-23T14:07:38;8.88;;;2.22;;
19205;SDS011;59358;52.134;5.596;2024-02-23T14:10:05;5.93;;;1.88;;
19205;SDS011;59358;52.134;5.596;2024-02-23T14:12:33;4.97;;;1.80;;
19205;SDS011;59358;52.134;5.596;2024-02-23T14:15:01;5.40;;;2.33;;
19205;SDS011;59358;52.134;5.596;2024-02-23T14:17:29;6.53;;;2.92;;
19205;SDS011;59358;52.134;5.596;2024-02-23T14:19:56;4.90;;;2.00;;
19205;SDS011;59358;52.134;5.596;2024-02-23T14:22:23;6.85;;;2.83;;
19205;SDS011;59358;52.134;5.596;2024-02-23T14:24:50;4.65;;;1.80;;
19205;SDS011;59358;52.134;5.596;2024-02-23T14:27:17;4.25;;;1.80;;
19205;SDS011;59358;52.134;5.596;2024-02-23T14:29:43;11.45;;;2.50;;
19205;SDS011;59358;52.134;5.596;2024-02-23T14:32:15;5.53;;;2.17;;
19205;SDS011;59358;52.134;5.596;2024-02-23T14:34:42;7.35;;;1.85;;
19205;SDS011;59358;52.134;5.596;2024-02-23T14:37:09;5.40;;;2.33;;
19205;SDS011;59358;52.134;5.596;2024-02-23T14:39:36;7.25;;;2.10;;
19205;SDS011;59358;52.134;5.596;2024-02-23T14:42:03;3.38;;;1.70;;
19205;SDS011;59358;52.134;5.596;2024-02-23T14:44:30;2.67;;;1.50;;